sensor_id;sensor_type;location;lat;lon;timestamp;temperature;humidity
15072;DHT22;7635;56.696;13.002;2022-12-04T00:01:09;1.20;99.90
15072;DHT22;7635;56.696;13.002;2022-12-04T00:03:38;1.20;99.90
15072;DHT22;7635;56.696;13.002;2022-12-04T00:06:08;1.20;99.90
15072;DHT22;7635;56.696;13.002;2022-12-04T00:08:36;1.20;99.90
15072;DHT22;7635;56.696;13.002;2022-12-04T00:11:03;1.20;99.90
15072;DHT22;7635;56.696;13.002;2022-12-04T00:13:30;1.10;99.90
15072;DHT22;7635;56.696;13.002;2022-12-04T00:15:57;1.10;99.90
15072;DHT22;7635;56.696;13.002;2022-12-04T00:18:25;1.10;99.90
15072;DHT22;7635;56.696;13.002;2022-12-04T00:20:53;1.20;99.90
15072;DHT22;7635;56.696;13.002;2022-12-04T00:23:20;1.10;99.90
15072;DHT22;7635;56.696;13.002;2022-12-04T00:25:47;1.10;99.90
15072;DHT22;7635;56.696;13.002;2022-12-04T00:28:14;1.10;99.90
15072;DHT22;7635;56.696;13.002;2022-12-04T00:30:42;1.10;99.90
15072;DHT22;7635;56.696;13.002;2022-12-04T00:33:09;1.10;99.90
15072;DHT22;7635;56.696;13.002;2022-12-04T00:35:36;1.10;99.90
15072;DHT22;7635;56.696;13.002;2022-12-04T00:38:04;1.10;99.90
15072;DHT22;7635;56.696;13.002;2022-12-04T00:40:31;1.10;99.90
15072;DHT22;7635;56.696;13.002;2022-12-04T00:42:58;1.10;99.90
15072;DHT22;7635;56.696;13.002;2022-12-04T00:45:24;1.10;99.90
15072;DHT22;7635;56.696;13.002;2022-12-04T00:47:51;1.10;99.90
15072;DHT22;7635;56.696;13.002;2022-12-04T00:50:18;1.10;99.90
15072;DHT22;7635;56.696;13.002;2022-12-04T00:52:45;1.10;99.90
15072;DHT22;7635;56.696;13.002;2022-12-04T00:55:13;1.10;99.90
15072;DHT22;7635;56.696;13.002;2022-12-04T00:57:40;1.10;99.90
15072;DHT22;7635;56.696;13.002;2022-12-04T01:00:07;1.10;99.90
15072;DHT22;7635;56.696;13.002;2022-12-04T01:02:34;1.10;99.90
15072;DHT22;7635;56.696;13.002;2022-12-04T01:05:01;1.10;99.90
15072;DHT22;7635;56.696;13.002;2022-12-04T01:07:28;1.10;99.90
15072;DHT22;7635;56.696;13.002;2022-12-04T01:09:55;1.10;99.90
15072;DHT22;7635;56.696;13.002;2022-12-04T01:12:23;1.10;99.90
15072;DHT22;7635;56.696;13.002;2022-12-04T01:14:50;1.00;99.90
15072;DHT22;7635;56.696;13.002;2022-12-04T01:17:17;1.00;99.90
15072;DHT22;7635;56.696;13.002;2022-12-04T01:19:44;1.00;99.90
15072;DHT22;7635;56.696;13.002;2022-12-04T01:22:11;1.10;99.90
15072;DHT22;7635;56.696;13.002;2022-12-04T01:24:37;1.00;99.90
15072;DHT22;7635;56.696;13.002;2022-12-04T01:27:04;1.10;99.90
15072;DHT22;7635;56.696;13.002;2022-12-04T01:29:32;1.00;99.90
15072;DHT22;7635;56.696;13.002;2022-12-04T01:31:59;1.00;99.90
15072;DHT22;7635;56.696;13.002;2022-12-04T01:34:26;1.00;99.90
15072;DHT22;7635;56.696;13.002;2022-12-04T01:36:52;1.00;99.90
15072;DHT22;7635;56.696;13.002;2022-12-04T01:39:19;1.00;99.90
15072;DHT22;7635;56.696;13.002;2022-12-04T01:41:46;1.00;99.90
15072;DHT22;7635;56.696;13.002;2022-12-04T01:44:15;1.00;99.90
15072;DHT22;7635;56.696;13.002;2022-12-04T01:46:45;1.00;99.90
15072;DHT22;7635;56.696;13.002;2022-12-04T01:49:15;1.00;99.90
15072;DHT22;7635;56.696;13.002;2022-12-04T01:51:46;1.00;99.90
15072;DHT22;7635;56.696;13.002;2022-12-04T01:54:16;1.00;99.90
15072;DHT22;7635;56.696;13.002;2022-12-04T01:56:46;1.00;99.90
15072;DHT22;7635;56.696;13.002;2022-12-04T01:59:17;1.00;99.90
15072;DHT22;7635;56.696;13.002;2022-12-04T02:01:51;1.00;99.90
15072;DHT22;7635;56.696;13.002;2022-12-04T02:04:19;1.00;99.90
15072;DHT22;7635;56.696;13.002;2022-12-04T02:06:46;1.00;99.90
15072;DHT22;7635;56.696;13.002;2022-12-04T02:09:13;1.00;99.90
15072;DHT22;7635;56.696;13.002;2022-12-04T02:11:44;1.00;99.90
15072;DHT22;7635;56.696;13.002;2022-12-04T02:14:18;1.00;99.90
15072;DHT22;7635;56.696;13.002;2022-12-04T02:16:52;1.00;99.90
15072;DHT22;7635;56.696;13.002;2022-12-04T02:19:40;1.00;99.90
15072;DHT22;7635;56.696;13.002;2022-12-04T02:22:22;1.00;99.90
15072;DHT22;7635;56.696;13.002;2022-12-04T02:24:55;1.00;99.90
15072;DHT22;7635;56.696;13.002;2022-12-04T02:27:42;1.00;99.90
15072;DHT22;7635;56.696;13.002;2022-12-04T02:30:12;1.00;99.90
15072;DHT22;7635;56.696;13.002;2022-12-04T02:32:42;1.00;99.90
15072;DHT22;7635;56.696;13.002;2022-12-04T02:35:15;1.00;99.90
15072;DHT22;7635;56.696;13.002;2022-12-04T02:37:45;1.00;99.90
15072;DHT22;7635;56.696;13.002;2022-12-04T02:40:18;0.90;99.90
15072;DHT22;7635;56.696;13.002;2022-12-04T02:42:52;1.00;99.90
15072;DHT22;7635;56.696;13.002;2022-12-04T02:45:24;1.00;99.90
15072;DHT22;7635;56.696;13.002;2022-12-04T02:47:52;1.00;99.90
15072;DHT22;7635;56.696;13.002;2022-12-04T02:50:22;1.00;99.90
15072;DHT22;7635;56.696;13.002;2022-12-04T02:52:52;1.00;99.90
15072;DHT22;7635;56.696;13.002;2022-12-04T02:55:22;1.00;99.90
15072;DHT22;7635;56.696;13.002;2022-12-04T02:57:56;1.00;99.90
15072;DHT22;7635;56.696;13.002;2022-12-04T03:00:23;1.00;99.90
15072;DHT22;7635;56.696;13.002;2022-12-04T03:02:54;1.00;99.90
15072;DHT22;7635;56.696;13.002;2022-12-04T03:05:26;0.90;99.90
15072;DHT22;7635;56.696;13.002;2022-12-04T03:07:57;0.90;99.90
15072;DHT22;7635;56.696;13.002;2022-12-04T03:10:29;0.90;99.90
15072;DHT22;7635;56.696;13.002;2022-12-04T03:13:02;0.90;99.90
15072;DHT22;7635;56.696;13.002;2022-12-04T03:15:36;0.90;99.90
15072;DHT22;7635;56.696;13.002;2022-12-04T03:18:09;0.90;99.90
15072;DHT22;7635;56.696;13.002;2022-12-04T03:20:39;0.90;99.90
15072;DHT22;7635;56.696;13.002;2022-12-04T03:23:09;0.90;99.90
15072;DHT22;7635;56.696;13.002;2022-12-04T03:25:42;0.90;99.90
15072;DHT22;7635;56.696;13.002;2022-12-04T03:28:18;0.80;99.90
15072;DHT22;7635;56.696;13.002;2022-12-04T03:30:52;0.80;99.90
15072;DHT22;7635;56.696;13.002;2022-12-04T03:33:27;0.80;99.90
15072;DHT22;7635;56.696;13.002;2022-12-04T03:35:57;0.80;99.90
15072;DHT22;7635;56.696;13.002;2022-12-04T03:38:32;0.80;99.90
15072;DHT22;7635;56.696;13.002;2022-12-04T03:41:02;0.80;99.90
15072;DHT22;7635;56.696;13.002;2022-12-04T03:43:35;0.80;99.90
15072;DHT22;7635;56.696;13.002;2022-12-04T03:46:07;0.80;99.90
15072;DHT22;7635;56.696;13.002;2022-12-04T03:48:39;0.80;99.90
15072;DHT22;7635;56.696;13.002;2022-12-04T03:51:13;0.80;99.90
15072;DHT22;7635;56.696;13.002;2022-12-04T03:53:44;0.80;99.90
15072;DHT22;7635;56.696;13.002;2022-12-04T03:56:16;0.80;99.90
15072;DHT22;7635;56.696;13.002;2022-12-04T03:58:46;0.80;99.90
15072;DHT22;7635;56.696;13.002;2022-12-04T04:01:16;0.70;99.90
15072;DHT22;7635;56.696;13.002;2022-12-04T04:03:47;0.70;99.90
15072;DHT22;7635;56.696;13.002;2022-12-04T04:06:18;0.70;99.90
15072;DHT22;7635;56.696;13.002;2022-12-04T04:08:49;0.70;99.90
15072;DHT22;7635;56.696;13.002;2022-12-04T04:11:18;0.70;99.90
15072;DHT22;7635;56.696;13.002;2022-12-04T04:13:52;0.70;99.90
15072;DHT22;7635;56.696;13.002;2022-12-04T04:16:39;0.70;99.90
15072;DHT22;7635;56.696;13.002;2022-12-04T04:19:27;0.70;99.90
15072;DHT22;7635;56.696;13.002;2022-12-04T04:22:13;0.70;99.90
15072;DHT22;7635;56.696;13.002;2022-12-04T04:25:02;0.70;99.90
15072;DHT22;7635;56.696;13.002;2022-12-04T04:27:30;0.70;99.90
15072;DHT22;7635;56.696;13.002;2022-12-04T04:29:58;0.70;99.90
15072;DHT22;7635;56.696;13.002;2022-12-04T04:32:31;0.70;99.90
15072;DHT22;7635;56.696;13.002;2022-12-04T04:35:07;0.70;99.90
15072;DHT22;7635;56.696;13.002;2022-12-04T04:37:42;0.70;99.90
15072;DHT22;7635;56.696;13.002;2022-12-04T04:40:15;0.70;99.90
15072;DHT22;7635;56.696;13.002;2022-12-04T04:42:49;0.70;99.90
15072;DHT22;7635;56.696;13.002;2022-12-04T04:45:21;0.70;99.90
15072;DHT22;7635;56.696;13.002;2022-12-04T04:47:51;0.70;99.90
15072;DHT22;7635;56.696;13.002;2022-12-04T04:50:20;0.70;99.90
15072;DHT22;7635;56.696;13.002;2022-12-04T04:52:50;0.70;99.90
15072;DHT22;7635;56.696;13.002;2022-12-04T04:55:18;0.70;99.90
15072;DHT22;7635;56.696;13.002;2022-12-04T04:57:46;0.70;99.90
15072;DHT22;7635;56.696;13.002;2022-12-04T05:00:20;0.70;99.90
15072;DHT22;7635;56.696;13.002;2022-12-04T05:02:47;0.70;99.90
15072;DHT22;7635;56.696;13.002;2022-12-04T05:05:14;0.80;99.90
15072;DHT22;7635;56.696;13.002;2022-12-04T05:07:42;0.70;99.90
15072;DHT22;7635;56.696;13.002;2022-12-04T05:10:09;0.80;99.90
15072;DHT22;7635;56.696;13.002;2022-12-04T05:12:36;0.80;99.90
15072;DHT22;7635;56.696;13.002;2022-12-04T05:15:03;0.80;99.90
15072;DHT22;7635;56.696;13.002;2022-12-04T05:17:33;0.80;99.90
15072;DHT22;7635;56.696;13.002;2022-12-04T05:20:00;0.80;99.90
15072;DHT22;7635;56.696;13.002;2022-12-04T05:22:28;0.80;99.90
15072;DHT22;7635;56.696;13.002;2022-12-04T05:24:56;0.80;99.90
15072;DHT22;7635;56.696;13.002;2022-12-04T05:27:24;0.80;99.90
15072;DHT22;7635;56.696;13.002;2022-12-04T05:29:51;0.80;99.90
15072;DHT22;7635;56.696;13.002;2022-12-04T05:32:18;0.80;99.90
15072;DHT22;7635;56.696;13.002;2022-12-04T05:34:47;0.80;99.90
15072;DHT22;7635;56.696;13.002;2022-12-04T05:37:14;0.80;99.90
15072;DHT22;7635;56.696;13.002;2022-12-04T05:39:41;0.80;99.90
15072;DHT22;7635;56.696;13.002;2022-12-04T05:42:08;0.80;99.90
15072;DHT22;7635;56.696;13.002;2022-12-04T05:44:35;0.80;99.90
15072;DHT22;7635;56.696;13.002;2022-12-04T05:47:02;0.80;99.90
15072;DHT22;7635;56.696;13.002;2022-12-04T05:49:29;0.80;99.90
15072;DHT22;7635;56.696;13.002;2022-12-04T05:51:58;0.80;99.90
15072;DHT22;7635;56.696;13.002;2022-12-04T05:54:25;0.80;99.90
15072;DHT22;7635;56.696;13.002;2022-12-04T05:56:51;0.80;99.90
15072;DHT22;7635;56.696;13.002;2022-12-04T05:59:18;0.90;99.90
15072;DHT22;7635;56.696;13.002;2022-12-04T06:01:45;0.80;99.90
15072;DHT22;7635;56.696;13.002;2022-12-04T06:04:12;0.80;99.90
15072;DHT22;7635;56.696;13.002;2022-12-04T06:06:39;0.80;99.90
15072;DHT22;7635;56.696;13.002;2022-12-04T06:09:07;0.80;99.90
15072;DHT22;7635;56.696;13.002;2022-12-04T06:11:37;0.80;99.90
15072;DHT22;7635;56.696;13.002;2022-12-04T06:14:06;0.80;99.90
15072;DHT22;7635;56.696;13.002;2022-12-04T06:16:35;0.80;99.90
15072;DHT22;7635;56.696;13.002;2022-12-04T06:19:05;0.80;99.90
15072;DHT22;7635;56.696;13.002;2022-12-04T06:21:34;0.80;99.90
15072;DHT22;7635;56.696;13.002;2022-12-04T06:24:01;0.80;99.90
15072;DHT22;7635;56.696;13.002;2022-12-04T06:26:29;0.80;99.90
15072;DHT22;7635;56.696;13.002;2022-12-04T06:28:57;0.80;99.90
15072;DHT22;7635;56.696;13.002;2022-12-04T06:31:26;0.80;99.90
15072;DHT22;7635;56.696;13.002;2022-12-04T06:33:53;0.80;99.90
15072;DHT22;7635;56.696;13.002;2022-12-04T06:36:21;0.80;99.90
15072;DHT22;7635;56.696;13.002;2022-12-04T06:38:49;0.80;99.90
15072;DHT22;7635;56.696;13.002;2022-12-04T06:41:18;0.80;99.90
15072;DHT22;7635;56.696;13.002;2022-12-04T06:43:47;0.80;99.90
15072;DHT22;7635;56.696;13.002;2022-12-04T06:46:17;0.80;99.90
15072;DHT22;7635;56.696;13.002;2022-12-04T06:48:44;0.80;99.90
15072;DHT22;7635;56.696;13.002;2022-12-04T06:51:13;0.90;99.90
15072;DHT22;7635;56.696;13.002;2022-12-04T06:53:40;0.90;99.90
15072;DHT22;7635;56.696;13.002;2022-12-04T06:56:10;0.90;99.90
15072;DHT22;7635;56.696;13.002;2022-12-04T06:58:37;0.90;99.90
15072;DHT22;7635;56.696;13.002;2022-12-04T07:01:09;0.90;99.90
15072;DHT22;7635;56.696;13.002;2022-12-04T07:03:37;0.90;99.90
15072;DHT22;7635;56.696;13.002;2022-12-04T07:06:12;0.90;99.90
15072;DHT22;7635;56.696;13.002;2022-12-04T07:08:39;0.90;99.90
15072;DHT22;7635;56.696;13.002;2022-12-04T07:11:06;0.90;99.90
15072;DHT22;7635;56.696;13.002;2022-12-04T07:13:33;0.90;99.90
15072;DHT22;7635;56.696;13.002;2022-12-04T07:16:00;0.90;99.90
15072;DHT22;7635;56.696;13.002;2022-12-04T07:18:29;1.00;99.90
15072;DHT22;7635;56.696;13.002;2022-12-04T07:20:57;1.00;99.90
15072;DHT22;7635;56.696;13.002;2022-12-04T07:23:24;0.90;99.90
15072;DHT22;7635;56.696;13.002;2022-12-04T07:25:51;1.00;99.90
15072;DHT22;7635;56.696;13.002;2022-12-04T07:28:17;1.00;99.90
15072;DHT22;7635;56.696;13.002;2022-12-04T07:30:44;1.00;99.90
15072;DHT22;7635;56.696;13.002;2022-12-04T07:33:11;1.00;99.90
15072;DHT22;7635;56.696;13.002;2022-12-04T07:35:39;1.00;99.90
15072;DHT22;7635;56.696;13.002;2022-12-04T07:38:06;1.00;99.90
15072;DHT22;7635;56.696;13.002;2022-12-04T07:40:33;1.00;99.90
15072;DHT22;7635;56.696;13.002;2022-12-04T07:43:00;1.00;99.90
15072;DHT22;7635;56.696;13.002;2022-12-04T07:45:26;1.00;99.90
15072;DHT22;7635;56.696;13.002;2022-12-04T07:47:53;1.00;99.90
15072;DHT22;7635;56.696;13.002;2022-12-04T07:50:20;1.00;99.90
15072;DHT22;7635;56.696;13.002;2022-12-04T07:52:48;1.10;99.90
15072;DHT22;7635;56.696;13.002;2022-12-04T07:55:15;1.10;99.90
15072;DHT22;7635;56.696;13.002;2022-12-04T07:57:41;1.10;99.90
15072;DHT22;7635;56.696;13.002;2022-12-04T08:00:10;1.10;99.90
15072;DHT22;7635;56.696;13.002;2022-12-04T08:02:37;1.10;99.90
15072;DHT22;7635;56.696;13.002;2022-12-04T08:05:04;1.10;99.90
15072;DHT22;7635;56.696;13.002;2022-12-04T08:07:31;1.10;99.90
15072;DHT22;7635;56.696;13.002;2022-12-04T08:10:00;1.20;99.90
15072;DHT22;7635;56.696;13.002;2022-12-04T08:12:26;1.20;99.90
15072;DHT22;7635;56.696;13.002;2022-12-04T08:14:53;1.20;99.90
15072;DHT22;7635;56.696;13.002;2022-12-04T08:17:20;1.20;99.90
15072;DHT22;7635;56.696;13.002;2022-12-04T08:19:47;1.20;99.90
15072;DHT22;7635;56.696;13.002;2022-12-04T08:22:13;1.20;99.90
15072;DHT22;7635;56.696;13.002;2022-12-04T08:24:40;1.20;99.90
15072;DHT22;7635;56.696;13.002;2022-12-04T08:27:08;1.20;99.90
15072;DHT22;7635;56.696;13.002;2022-12-04T08:29:35;1.20;99.90
15072;DHT22;7635;56.696;13.002;2022-12-04T08:32:02;1.30;99.90
15072;DHT22;7635;56.696;13.002;2022-12-04T08:34:29;1.30;99.90
15072;DHT22;7635;56.696;13.002;2022-12-04T08:36:56;1.30;99.90
15072;DHT22;7635;56.696;13.002;2022-12-04T08:39:23;1.30;99.90
15072;DHT22;7635;56.696;13.002;2022-12-04T08:41:50;1.30;99.90
15072;DHT22;7635;56.696;13.002;2022-12-04T08:44:18;1.30;99.90
15072;DHT22;7635;56.696;13.002;2022-12-04T08:46:45;1.30;99.90
15072;DHT22;7635;56.696;13.002;2022-12-04T08:49:12;1.30;99.90
15072;DHT22;7635;56.696;13.002;2022-12-04T08:51:39;1.40;99.90
15072;DHT22;7635;56.696;13.002;2022-12-04T08:54:07;1.40;99.90
15072;DHT22;7635;56.696;13.002;2022-12-04T08:56:35;1.40;99.90
15072;DHT22;7635;56.696;13.002;2022-12-04T08:59:02;1.40;99.90
15072;DHT22;7635;56.696;13.002;2022-12-04T09:01:30;1.40;99.90
15072;DHT22;7635;56.696;13.002;2022-12-04T09:03:57;1.40;99.90
15072;DHT22;7635;56.696;13.002;2022-12-04T09:06:24;1.40;99.90
15072;DHT22;7635;56.696;13.002;2022-12-04T09:08:52;1.40;99.90
15072;DHT22;7635;56.696;13.002;2022-12-04T09:11:21;1.40;99.90
15072;DHT22;7635;56.696;13.002;2022-12-04T09:13:48;1.40;99.90
15072;DHT22;7635;56.696;13.002;2022-12-04T09:16:16;1.50;99.90
15072;DHT22;7635;56.696;13.002;2022-12-04T09:18:45;1.50;99.90
15072;DHT22;7635;56.696;13.002;2022-12-04T09:21:14;1.50;99.90
15072;DHT22;7635;56.696;13.002;2022-12-04T09:23:41;1.50;99.90
15072;DHT22;7635;56.696;13.002;2022-12-04T09:26:16;1.50;99.90
15072;DHT22;7635;56.696;13.002;2022-12-04T09:28:44;1.50;99.90
15072;DHT22;7635;56.696;13.002;2022-12-04T09:31:10;1.50;99.90
15072;DHT22;7635;56.696;13.002;2022-12-04T09:33:37;1.50;99.90
15072;DHT22;7635;56.696;13.002;2022-12-04T09:36:06;1.50;99.90
15072;DHT22;7635;56.696;13.002;2022-12-04T09:38:33;1.60;99.90
15072;DHT22;7635;56.696;13.002;2022-12-04T09:41:04;1.60;99.90
15072;DHT22;7635;56.696;13.002;2022-12-04T09:43:42;1.60;99.90
15072;DHT22;7635;56.696;13.002;2022-12-04T09:46:17;1.60;99.90
15072;DHT22;7635;56.696;13.002;2022-12-04T09:48:46;1.60;99.90
15072;DHT22;7635;56.696;13.002;2022-12-04T09:51:20;1.60;99.90
15072;DHT22;7635;56.696;13.002;2022-12-04T09:53:52;1.60;99.90
15072;DHT22;7635;56.696;13.002;2022-12-04T09:56:22;1.60;99.90
15072;DHT22;7635;56.696;13.002;2022-12-04T09:58:54;1.60;99.90
15072;DHT22;7635;56.696;13.002;2022-12-04T10:01:26;1.70;99.90
15072;DHT22;7635;56.696;13.002;2022-12-04T10:03:53;1.70;99.90
15072;DHT22;7635;56.696;13.002;2022-12-04T10:06:24;1.70;99.90
15072;DHT22;7635;56.696;13.002;2022-12-04T10:08:58;1.70;99.90
15072;DHT22;7635;56.696;13.002;2022-12-04T10:11:37;1.70;99.90
15072;DHT22;7635;56.696;13.002;2022-12-04T10:14:17;1.70;99.90
15072;DHT22;7635;56.696;13.002;2022-12-04T10:16:57;1.70;99.90
15072;DHT22;7635;56.696;13.002;2022-12-04T10:19:33;1.70;99.90
15072;DHT22;7635;56.696;13.002;2022-12-04T10:22:10;1.70;99.90
15072;DHT22;7635;56.696;13.002;2022-12-04T10:24:42;1.80;99.90
15072;DHT22;7635;56.696;13.002;2022-12-04T10:27:15;1.80;99.90
15072;DHT22;7635;56.696;13.002;2022-12-04T10:29:46;1.80;99.90
15072;DHT22;7635;56.696;13.002;2022-12-04T10:32:19;1.80;99.90
15072;DHT22;7635;56.696;13.002;2022-12-04T10:34:47;1.80;99.90
15072;DHT22;7635;56.696;13.002;2022-12-04T10:37:17;1.80;99.90
15072;DHT22;7635;56.696;13.002;2022-12-04T10:39:48;1.80;99.90
15072;DHT22;7635;56.696;13.002;2022-12-04T10:42:23;1.80;99.90
15072;DHT22;7635;56.696;13.002;2022-12-04T10:44:51;1.80;99.90
15072;DHT22;7635;56.696;13.002;2022-12-04T10:47:19;1.80;99.90
15072;DHT22;7635;56.696;13.002;2022-12-04T10:49:49;1.80;99.90
15072;DHT22;7635;56.696;13.002;2022-12-04T10:52:21;1.80;99.90
15072;DHT22;7635;56.696;13.002;2022-12-04T10:54:52;1.80;99.90
15072;DHT22;7635;56.696;13.002;2022-12-04T10:57:20;1.80;99.90
15072;DHT22;7635;56.696;13.002;2022-12-04T10:59:48;1.90;99.90
15072;DHT22;7635;56.696;13.002;2022-12-04T11:02:20;1.90;99.90
15072;DHT22;7635;56.696;13.002;2022-12-04T11:04:53;1.90;99.90
15072;DHT22;7635;56.696;13.002;2022-12-04T11:07:23;1.90;99.90
15072;DHT22;7635;56.696;13.002;2022-12-04T11:09:56;1.90;99.90
15072;DHT22;7635;56.696;13.002;2022-12-04T11:12:24;1.90;99.90
15072;DHT22;7635;56.696;13.002;2022-12-04T11:15:13;1.90;99.90
15072;DHT22;7635;56.696;13.002;2022-12-04T11:17:40;1.90;99.90
15072;DHT22;7635;56.696;13.002;2022-12-04T11:20:13;1.90;99.90
15072;DHT22;7635;56.696;13.002;2022-12-04T11:22:49;1.90;99.90
15072;DHT22;7635;56.696;13.002;2022-12-04T11:25:17;1.90;99.90
15072;DHT22;7635;56.696;13.002;2022-12-04T11:27:46;1.90;99.90
15072;DHT22;7635;56.696;13.002;2022-12-04T11:30:17;1.90;99.90
15072;DHT22;7635;56.696;13.002;2022-12-04T11:32:45;2.00;99.90
15072;DHT22;7635;56.696;13.002;2022-12-04T11:35:15;2.00;99.90
15072;DHT22;7635;56.696;13.002;2022-12-04T11:37:52;2.00;99.90
15072;DHT22;7635;56.696;13.002;2022-12-04T11:40:20;2.00;99.90
15072;DHT22;7635;56.696;13.002;2022-12-04T11:42:58;2.00;99.90
15072;DHT22;7635;56.696;13.002;2022-12-04T11:45:26;2.00;99.90
15072;DHT22;7635;56.696;13.002;2022-12-04T11:47:54;2.00;99.90
15072;DHT22;7635;56.696;13.002;2022-12-04T11:50:33;2.00;99.90
15072;DHT22;7635;56.696;13.002;2022-12-04T11:53:09;2.00;99.90
15072;DHT22;7635;56.696;13.002;2022-12-04T11:55:46;2.00;99.90
15072;DHT22;7635;56.696;13.002;2022-12-04T11:58:26;2.00;99.90
15072;DHT22;7635;56.696;13.002;2022-12-04T12:01:08;2.00;99.90
15072;DHT22;7635;56.696;13.002;2022-12-04T12:03:46;2.10;99.90
15072;DHT22;7635;56.696;13.002;2022-12-04T12:06:30;2.10;99.90
15072;DHT22;7635;56.696;13.002;2022-12-04T12:09:11;2.10;99.90
15072;DHT22;7635;56.696;13.002;2022-12-04T12:11:48;2.10;99.90
15072;DHT22;7635;56.696;13.002;2022-12-04T12:14:24;2.10;99.90
15072;DHT22;7635;56.696;13.002;2022-12-04T12:17:00;2.10;99.90
15072;DHT22;7635;56.696;13.002;2022-12-04T12:19:45;2.10;99.90
15072;DHT22;7635;56.696;13.002;2022-12-04T12:22:23;2.10;99.90
15072;DHT22;7635;56.696;13.002;2022-12-04T12:25:03;2.10;99.90
15072;DHT22;7635;56.696;13.002;2022-12-04T12:27:43;2.10;99.90
15072;DHT22;7635;56.696;13.002;2022-12-04T12:30:15;2.10;99.90
15072;DHT22;7635;56.696;13.002;2022-12-04T12:33:03;2.10;99.90
15072;DHT22;7635;56.696;13.002;2022-12-04T12:35:37;2.10;99.90
15072;DHT22;7635;56.696;13.002;2022-12-04T12:38:09;2.10;99.90
15072;DHT22;7635;56.696;13.002;2022-12-04T12:40:41;2.10;99.90
15072;DHT22;7635;56.696;13.002;2022-12-04T12:43:12;2.10;99.90
15072;DHT22;7635;56.696;13.002;2022-12-04T12:45:44;2.00;99.90
15072;DHT22;7635;56.696;13.002;2022-12-04T12:48:22;2.00;99.90
15072;DHT22;7635;56.696;13.002;2022-12-04T12:50:53;2.00;99.90
15072;DHT22;7635;56.696;13.002;2022-12-04T12:53:24;2.00;99.90
15072;DHT22;7635;56.696;13.002;2022-12-04T12:55:55;2.00;99.90
15072;DHT22;7635;56.696;13.002;2022-12-04T12:58:27;2.00;99.90
15072;DHT22;7635;56.696;13.002;2022-12-04T13:00:58;2.00;99.90
15072;DHT22;7635;56.696;13.002;2022-12-04T13:03:35;2.00;99.90
15072;DHT22;7635;56.696;13.002;2022-12-04T13:06:06;2.00;99.90
15072;DHT22;7635;56.696;13.002;2022-12-04T13:08:38;2.00;99.90
15072;DHT22;7635;56.696;13.002;2022-12-04T13:11:11;2.00;99.90
15072;DHT22;7635;56.696;13.002;2022-12-04T13:13:42;2.00;99.90
15072;DHT22;7635;56.696;13.002;2022-12-04T13:16:13;2.00;99.90
15072;DHT22;7635;56.696;13.002;2022-12-04T13:18:43;2.00;99.90
15072;DHT22;7635;56.696;13.002;2022-12-04T13:21:27;2.00;99.90
15072;DHT22;7635;56.696;13.002;2022-12-04T13:24:10;2.00;99.90
15072;DHT22;7635;56.696;13.002;2022-12-04T13:26:49;2.00;99.90
15072;DHT22;7635;56.696;13.002;2022-12-04T13:29:29;2.00;99.90
15072;DHT22;7635;56.696;13.002;2022-12-04T13:32:02;2.00;99.90
15072;DHT22;7635;56.696;13.002;2022-12-04T13:34:41;2.00;99.90
15072;DHT22;7635;56.696;13.002;2022-12-04T13:37:27;2.00;99.90
15072;DHT22;7635;56.696;13.002;2022-12-04T13:40:27;2.00;99.90
15072;DHT22;7635;56.696;13.002;2022-12-04T13:43:26;2.00;99.90
15072;DHT22;7635;56.696;13.002;2022-12-04T13:45:54;2.00;99.90
15072;DHT22;7635;56.696;13.002;2022-12-04T13:48:31;2.00;99.90
15072;DHT22;7635;56.696;13.002;2022-12-04T13:51:32;2.00;99.90
15072;DHT22;7635;56.696;13.002;2022-12-04T13:54:28;2.00;99.90
15072;DHT22;7635;56.696;13.002;2022-12-04T13:56:56;2.00;99.90
15072;DHT22;7635;56.696;13.002;2022-12-04T13:59:37;2.00;99.90
15072;DHT22;7635;56.696;13.002;2022-12-04T14:02:26;2.00;99.90
15072;DHT22;7635;56.696;13.002;2022-12-04T14:04:56;2.00;99.90
15072;DHT22;7635;56.696;13.002;2022-12-04T14:07:27;2.00;99.90
15072;DHT22;7635;56.696;13.002;2022-12-04T14:09:56;2.00;99.90
15072;DHT22;7635;56.696;13.002;2022-12-04T14:12:26;2.00;99.90
15072;DHT22;7635;56.696;13.002;2022-12-04T14:14:57;2.00;99.90
15072;DHT22;7635;56.696;13.002;2022-12-04T14:17:27;2.00;99.90
15072;DHT22;7635;56.696;13.002;2022-12-04T14:19:56;2.00;99.90
15072;DHT22;7635;56.696;13.002;2022-12-04T14:22:38;2.00;99.90
15072;DHT22;7635;56.696;13.002;2022-12-04T14:25:18;2.00;99.90
15072;DHT22;7635;56.696;13.002;2022-12-04T14:27:49;2.00;99.90
15072;DHT22;7635;56.696;13.002;2022-12-04T14:30:20;2.00;99.90
15072;DHT22;7635;56.696;13.002;2022-12-04T14:32:48;1.90;99.90
15072;DHT22;7635;56.696;13.002;2022-12-04T14:35:18;2.00;99.90
15072;DHT22;7635;56.696;13.002;2022-12-04T14:37:50;2.00;99.90
15072;DHT22;7635;56.696;13.002;2022-12-04T14:40:21;2.00;99.90
15072;DHT22;7635;56.696;13.002;2022-12-04T14:42:49;2.00;99.90
15072;DHT22;7635;56.696;13.002;2022-12-04T14:45:24;2.00;99.90
15072;DHT22;7635;56.696;13.002;2022-12-04T14:48:16;2.00;99.90
15072;DHT22;7635;56.696;13.002;2022-12-04T14:50:52;2.00;99.90
15072;DHT22;7635;56.696;13.002;2022-12-04T14:53:29;2.00;99.90
15072;DHT22;7635;56.696;13.002;2022-12-04T14:56:05;2.00;99.90
15072;DHT22;7635;56.696;13.002;2022-12-04T14:58:37;2.00;99.90
15072;DHT22;7635;56.696;13.002;2022-12-04T15:01:18;2.00;99.90
15072;DHT22;7635;56.696;13.002;2022-12-04T15:03:47;2.00;99.90
15072;DHT22;7635;56.696;13.002;2022-12-04T15:06:19;2.00;99.90
15072;DHT22;7635;56.696;13.002;2022-12-04T15:08:50;2.00;99.90
15072;DHT22;7635;56.696;13.002;2022-12-04T15:11:18;2.00;99.90
15072;DHT22;7635;56.696;13.002;2022-12-04T15:14:08;2.00;99.90
15072;DHT22;7635;56.696;13.002;2022-12-04T15:16:39;2.00;99.90
15072;DHT22;7635;56.696;13.002;2022-12-04T15:19:15;2.10;99.90
15072;DHT22;7635;56.696;13.002;2022-12-04T15:21:43;2.10;99.90
15072;DHT22;7635;56.696;13.002;2022-12-04T15:24:13;2.10;99.90
15072;DHT22;7635;56.696;13.002;2022-12-04T15:26:44;2.10;99.90
15072;DHT22;7635;56.696;13.002;2022-12-04T15:29:16;2.10;99.90
15072;DHT22;7635;56.696;13.002;2022-12-04T15:31:46;2.10;99.90
15072;DHT22;7635;56.696;13.002;2022-12-04T15:34:20;2.10;99.90
15072;DHT22;7635;56.696;13.002;2022-12-04T15:36:49;2.10;99.90
15072;DHT22;7635;56.696;13.002;2022-12-04T15:39:19;2.10;99.90
15072;DHT22;7635;56.696;13.002;2022-12-04T15:41:47;2.10;99.90
15072;DHT22;7635;56.696;13.002;2022-12-04T15:44:25;2.10;99.90
15072;DHT22;7635;56.696;13.002;2022-12-04T15:46:56;2.10;99.90
15072;DHT22;7635;56.696;13.002;2022-12-04T15:49:25;2.10;99.90
15072;DHT22;7635;56.696;13.002;2022-12-04T15:52:03;2.10;99.90
15072;DHT22;7635;56.696;13.002;2022-12-04T15:54:30;2.10;99.90
15072;DHT22;7635;56.696;13.002;2022-12-04T15:56:59;2.10;99.90
15072;DHT22;7635;56.696;13.002;2022-12-04T15:59:27;2.10;99.90
15072;DHT22;7635;56.696;13.002;2022-12-04T16:02:00;2.10;99.90
15072;DHT22;7635;56.696;13.002;2022-12-04T16:04:29;2.10;99.90
15072;DHT22;7635;56.696;13.002;2022-12-04T16:07:00;2.10;99.90
15072;DHT22;7635;56.696;13.002;2022-12-04T16:09:27;2.10;99.90